createdAt,value
2022-08-01T00:01:58.627Z,148395.28
2022-08-01T00:07:02.377Z,148392.78
2022-08-01T00:12:06.984Z,148391.53
2022-08-01T00:17:09.586Z,148390.31
2022-08-01T00:22:12.259Z,148399.06
2022-08-01T00:27:16.259Z,148384.06
2022-08-01T00:32:18.843Z,148391.53
2022-08-01T00:37:21.386Z,148384.06
2022-08-01T00:42:25.325Z,148375.38
2022-08-01T00:47:27.842Z,148372.88
2022-08-01T00:52:30.386Z,148360.44
2022-08-01T00:58:02.858Z,148359.22
2022-08-01T01:02:57.100Z,148351.75
2022-08-01T01:08:06.116Z,148346.78
2022-08-01T01:13:18.280Z,148344.28
2022-08-01T01:18:26.447Z,148350.50
2022-08-01T01:23:46.622Z,148350.50
2022-08-01T01:29:03.771Z,148346.78
2022-08-01T01:34:07.477Z,148356.72
2022-08-01T01:39:10.295Z,148351.75
2022-08-01T01:44:15.671Z,148341.78
2022-08-01T01:49:21.082Z,148339.31
2022-08-01T01:54:25.223Z,148339.31
2022-08-01T01:59:32.701Z,148333.03
2022-08-01T02:04:38.504Z,148315.63
2022-08-01T02:09:43.920Z,148298.22
2022-08-01T02:14:48.858Z,148265.84
2022-08-01T02:19:51.678Z,148245.91
2022-08-01T02:24:59.572Z,148230.97
2022-08-01T02:30:07.060Z,148219.75
2022-08-01T02:35:13.547Z,148194.88
2022-08-01T02:40:18.645Z,148183.69
2022-08-01T02:45:26.947Z,148176.22
2022-08-01T02:50:31.611Z,148174.97
2022-08-01T02:55:36.007Z,148165.03
2022-08-01T03:00:41.835Z,148158.78
2022-08-01T03:05:47.428Z,148155.03
2022-08-01T03:10:52.404Z,148155.03
2022-08-01T03:15:57.973Z,148156.28
2022-08-01T03:21:02.708Z,148160.00
2022-08-01T03:26:06.452Z,148162.50
2022-08-01T03:31:11.361Z,148166.28
2022-08-01T03:36:17.395Z,148165.03
2022-08-01T03:41:22.894Z,148177.47
2022-08-01T03:46:31.912Z,148179.94
2022-08-01T03:51:35.423Z,148182.44
2022-08-01T03:56:38.967Z,148184.94
2022-08-01T04:01:43.108Z,148181.19
2022-08-01T04:06:45.939Z,148181.19
2022-08-01T04:11:48.791Z,148173.75
2022-08-01T04:16:52.674Z,148179.94
2022-08-01T04:21:55.197Z,148176.22
2022-08-01T04:27:00.191Z,148191.16
2022-08-01T04:32:05.131Z,148198.59
2022-08-01T04:37:11.215Z,148197.34
2022-08-01T04:42:17.366Z,148204.81
2022-08-01T04:47:32.367Z,148209.78
2022-08-01T04:52:36.207Z,148218.50
2022-08-01T04:57:42.887Z,148232.22
2022-08-01T05:02:47.542Z,148226.00
2022-08-01T05:07:50.178Z,148227.25
2022-08-01T05:12:52.686Z,148234.72
2022-08-01T05:17:57.143Z,148212.28
2022-08-01T05:22:59.738Z,148201.09
2022-08-01T05:28:02.286Z,148206.06
2022-08-01T05:33:07.378Z,148227.25
2022-08-01T05:38:12.597Z,148230.97
2022-08-01T05:43:17.566Z,148233.47
2022-08-01T05:48:21.499Z,148227.25
2022-08-01T05:53:24.014Z,148212.28
2022-08-01T05:58:26.601Z,148176.22
2022-08-01T06:03:32.178Z,148140.13
2022-08-01T06:08:34.904Z,148141.38
2022-08-01T06:13:44.999Z,148151.31
2022-08-01T06:18:56.495Z,148150.06
2022-08-01T06:23:59.385Z,148152.56
2022-08-01T06:29:01.907Z,148171.25
2022-08-01T06:34:05.771Z,148208.56
2022-08-01T06:39:08.315Z,148250.88
2022-08-01T06:44:10.807Z,148304.44
2022-08-01T06:49:14.735Z,148360.44
2022-08-01T06:54:17.984Z,148430.16
2022-08-01T06:59:20.607Z,148492.41
2022-08-01T07:04:24.453Z,148536.06
2022-08-01T07:09:27.337Z,148494.91
2022-08-01T07:14:29.711Z,148432.63
2022-08-01T07:19:34.436Z,148402.78
2022-08-01T07:24:45.952Z,148428.91
2022-08-01T07:29:48.724Z,148506.16
2022-08-01T07:34:52.650Z,148554.72
2022-08-01T07:39:55.169Z,148477.47
2022-08-01T07:44:57.718Z,148446.31
2022-08-01T07:50:06.218Z,148519.88
2022-08-01T07:55:10.061Z,148533.56
2022-08-01T08:00:14.059Z,148528.59
2022-08-01T08:05:59.011Z,148524.84
2022-08-01T08:10:40.547Z,148506.16
2022-08-01T08:15:44.331Z,148544.75
2022-08-01T08:20:52.392Z,148564.69
2022-08-01T08:25:54.958Z,148569.66
2022-08-01T08:30:57.470Z,148541.03
2022-08-01T08:36:02.802Z,148391.53
2022-08-01T08:41:05.388Z,148351.75
2022-08-01T08:46:10.216Z,148416.47
2022-08-01T08:51:15.038Z,148544.75
2022-08-01T08:56:17.674Z,148693.03
2022-08-01T09:01:22.774Z,148866.31
2022-08-01T09:06:27.637Z,149254.22
2022-08-01T09:11:30.378Z,149311.63
2022-08-01T09:16:33.390Z,149126.94
2022-08-01T09:21:37.271Z,149161.94
2022-08-01T09:26:42.498Z,149376.59
2022-08-01T09:31:47.976Z,149520.19
2022-08-01T09:36:55.264Z,149672.56
2022-08-01T09:42:00.887Z,149618.91
2022-08-01T09:47:07.932Z,149568.94
2022-08-01T09:52:17.853Z,149520.19
2022-08-01T09:57:22.261Z,149561.44
2022-08-01T10:02:33.215Z,149663.81
2022-08-01T10:07:57.904Z,150026.38
2022-08-01T10:13:01.770Z,150380.44
2022-08-01T10:18:16.851Z,150316.63
2022-08-01T10:23:40.843Z,149760.09
2022-08-01T10:28:49.324Z,149628.88
2022-08-01T10:33:53.693Z,149686.34
2022-08-01T10:38:58.293Z,149646.34
2022-08-01T10:44:02.431Z,149655.09
2022-08-01T10:49:08.895Z,149711.34
2022-08-01T10:54:15.321Z,149673.84
2022-08-01T10:59:29.190Z,149898.81
2022-08-01T11:04:53.375Z,149942.59
2022-08-01T11:10:14.561Z,150183.94
2022-08-01T11:15:31.115Z,150083.94
2022-08-01T11:20:36.056Z,150261.59
2022-08-01T11:26:13.087Z,150301.59
2022-08-01T11:31:37.433Z,150249.03
2022-08-01T11:36:58.931Z,150564.53
2022-08-01T11:42:21.572Z,150336.63
2022-08-01T11:47:45.338Z,150066.41
2022-08-01T11:52:48.004Z,150153.97
2022-08-01T11:57:51.941Z,150435.56
2022-08-01T12:03:00.544Z,150531.91
2022-08-01T12:08:03.279Z,150226.53
2022-08-01T12:13:08.669Z,150201.50
2022-08-01T12:18:11.176Z,149970.09
2022-08-01T12:23:14.965Z,150103.94
2022-08-01T12:28:19.618Z,150041.34
2022-08-01T12:33:23.198Z,150120.16
2022-08-01T12:38:26.043Z,150281.59
2022-08-01T12:43:35.422Z,150101.44
2022-08-01T12:48:39.871Z,149955.06
2022-08-01T12:53:42.486Z,149903.81
2022-08-01T12:58:46.374Z,149960.06
2022-08-01T13:03:59.938Z,149988.84
2022-08-01T13:09:07.552Z,150050.09
2022-08-01T13:14:11.724Z,150043.84
2022-08-01T13:19:14.787Z,150234.03
2022-08-01T13:24:17.856Z,150301.59
2022-08-01T13:29:24.011Z,150272.84
2022-08-01T13:34:33.255Z,150237.78
2022-08-01T13:39:42.398Z,150609.59
2022-08-01T13:44:46.475Z,150336.63
2022-08-01T13:49:49.117Z,150216.50
2022-08-01T13:54:51.699Z,150351.63
2022-08-01T13:59:55.798Z,150326.63
2022-08-01T14:04:59.470Z,150385.44
2022-08-01T14:10:18.150Z,150440.56
2022-08-01T14:15:38.296Z,150390.44
2022-08-01T14:20:42.259Z,150610.84
2022-08-01T14:26:00.273Z,150364.13
2022-08-01T14:31:08.580Z,150245.28
2022-08-01T14:36:29.247Z,150254.03
2022-08-01T14:41:33.881Z,150319.13
2022-08-01T14:46:37.817Z,150364.13
2022-08-01T14:52:00.001Z,150345.38
2022-08-01T14:57:02.594Z,150226.53
2022-08-01T15:02:07.196Z,150265.34
2022-08-01T15:07:09.974Z,150305.34
2022-08-01T15:12:13.427Z,150225.25
2022-08-01T15:17:17.960Z,150339.13
2022-08-01T15:22:22.244Z,150366.63
2022-08-01T15:27:25.642Z,150259.09
2022-08-01T15:32:30.131Z,150359.13
2022-08-01T15:37:32.672Z,150312.84
2022-08-01T15:42:35.815Z,150145.22
2022-08-01T15:47:39.688Z,150210.25
2022-08-01T15:52:42.186Z,150344.13
2022-08-01T15:57:44.728Z,150245.28
2022-08-01T16:02:48.733Z,150304.09
2022-08-01T16:07:59.695Z,150351.63
2022-08-01T16:13:06.800Z,150386.69
2022-08-01T16:18:14.383Z,150309.09
2022-08-01T16:23:16.938Z,150239.03
2022-08-01T16:28:19.766Z,150271.59
2022-08-01T16:33:45.203Z,150204.00
2022-08-01T16:38:46.666Z,150286.59
2022-08-01T16:43:53.656Z,150148.97
2022-08-01T16:48:58.589Z,150173.94
2022-08-01T16:54:01.238Z,150003.84
2022-08-01T16:59:03.807Z,149912.59
2022-08-01T17:04:07.835Z,149945.09
2022-08-01T17:09:10.384Z,149946.34
2022-08-01T17:14:12.916Z,149980.09
2022-08-01T17:19:16.837Z,149918.84
2022-08-01T17:24:19.370Z,149703.81
2022-08-01T17:29:21.959Z,149632.63
2022-08-01T17:34:25.874Z,149608.88
2022-08-01T17:39:38.799Z,149643.84
2022-08-01T17:44:48.695Z,149558.94
2022-08-01T17:49:55.209Z,149500.22
2022-08-01T17:54:58.412Z,149354.13
2022-08-01T18:00:01.032Z,149189.34
2022-08-01T18:05:04.929Z,149063.34
2022-08-01T18:10:13.297Z,148966.03
2022-08-01T18:15:22.289Z,148902.41
2022-08-01T18:20:31.116Z,148851.31
2022-08-01T18:25:33.888Z,148798.94
2022-08-01T18:30:36.478Z,148747.91
2022-08-01T18:35:52.110Z,148685.50
2022-08-01T18:40:55.243Z,148626.94
2022-08-01T18:45:57.915Z,148570.94
2022-08-01T18:51:01.827Z,148497.44
2022-08-01T18:56:11.210Z,148435.13
2022-08-01T19:01:14.474Z,148367.91
2022-08-01T19:06:18.458Z,148280.81
2022-08-01T19:11:21.338Z,148204.81
2022-08-01T19:16:23.911Z,148135.16
2022-08-01T19:21:27.955Z,148080.41
2022-08-01T19:26:33.503Z,148030.66
2022-08-01T19:31:44.283Z,147990.81
2022-08-01T19:36:52.627Z,147949.81
2022-08-01T19:41:56.639Z,147887.66
2022-08-01T19:46:59.326Z,147827.97
2022-08-01T19:52:04.651Z,147770.81
2022-08-01T19:57:08.975Z,147704.91
2022-08-01T20:02:15.804Z,147635.31
2022-08-01T20:07:20.777Z,147601.78
2022-08-01T20:12:23.867Z,147554.59
2022-08-01T20:17:26.478Z,147488.78
2022-08-01T20:22:34.647Z,147426.66
2022-08-01T20:27:39.575Z,147384.44
2022-08-01T20:32:43.142Z,147332.31
2022-08-01T20:38:06.894Z,147275.22
2022-08-01T20:43:10.043Z,147234.25
2022-08-01T20:48:13.409Z,147210.69
2022-08-01T20:53:18.459Z,147184.66
2022-08-01T20:58:31.248Z,147166.03
2022-08-01T21:03:40.995Z,147128.78
2022-08-01T21:08:49.774Z,147107.69
2022-08-01T21:13:52.631Z,147081.66
2022-08-01T21:19:19.028Z,147056.81
2022-08-01T21:24:24.059Z,147032.03
2022-08-01T21:29:27.452Z,147003.50
2022-08-01T21:34:30.269Z,146979.97
2022-08-01T21:39:36.039Z,146948.94
2022-08-01T21:44:40.117Z,146916.75
2022-08-01T21:49:43.019Z,146895.69
2022-08-01T21:54:57.807Z,146883.25
2022-08-01T22:00:09.534Z,146875.81
2022-08-01T22:05:14.041Z,146865.91
2022-08-01T22:10:19.938Z,146851.06
2022-08-01T22:15:26.570Z,146823.75
2022-08-01T22:20:48.461Z,146808.84
2022-08-01T22:25:54.921Z,146795.25
2022-08-01T22:30:58.799Z,146780.38
2022-08-01T22:36:01.753Z,146756.81
2022-08-01T22:41:07.693Z,146748.16
2022-08-01T22:46:24.917Z,146713.44
2022-08-01T22:51:35.075Z,146696.13
2022-08-01T22:56:42.963Z,146678.78
2022-08-01T23:01:50.499Z,146657.69
2022-08-01T23:06:56.367Z,146644.09
2022-08-01T23:12:01.464Z,146635.41
2022-08-01T23:17:27.733Z,146634.19
2022-08-01T23:22:29.621Z,146632.94
2022-08-01T23:27:52.094Z,146620.56
2022-08-01T23:32:57.155Z,146624.28
2022-08-01T23:38:02.723Z,146628.00
2022-08-01T23:43:14.678Z,146632.94
2022-08-01T23:48:20.426Z,146642.84
2022-08-01T23:53:22.989Z,146637.91
2022-08-01T23:58:27.151Z,146640.38
